sensor_id;sensor_type;location;lat;lon;timestamp;pressure;altitude;pressure_sealevel;temperature;humidity
55759;BME280;41678;52.126;20.664;2023-01-26T00:02:47;101211.81;;;-0.78;100.00
55759;BME280;41678;52.126;20.664;2023-01-26T00:08:07;101183.16;;;-0.83;100.00
55759;BME280;41678;52.126;20.664;2023-01-26T00:13:26;101205.03;;;-0.76;100.00
55759;BME280;41678;52.126;20.664;2023-01-26T00:18:46;101196.59;;;-0.72;100.00
55759;BME280;41678;52.126;20.664;2023-01-26T00:24:06;101186.19;;;-0.74;100.00
55759;BME280;41678;52.126;20.664;2023-01-26T00:29:26;101187.16;;;-0.72;100.00
55759;BME280;41678;52.126;20.664;2023-01-26T00:34:45;101193.97;;;-0.74;100.00
55759;BME280;41678;52.126;20.664;2023-01-26T00:40:04;101187.31;;;-0.68;100.00
55759;BME280;41678;52.126;20.664;2023-01-26T00:45:24;101190.69;;;-0.69;100.00
55759;BME280;41678;52.126;20.664;2023-01-26T00:50:44;101175.03;;;-0.73;100.00
55759;BME280;41678;52.126;20.664;2023-01-26T00:56:03;101181.97;;;-0.72;100.00
55759;BME280;41678;52.126;20.664;2023-01-26T01:01:26;101179.91;;;-0.61;100.00
55759;BME280;41678;52.126;20.664;2023-01-26T01:06:45;101186.56;;;-0.66;100.00
55759;BME280;41678;52.126;20.664;2023-01-26T01:12:05;101169.28;;;-0.67;100.00
55759;BME280;41678;52.126;20.664;2023-01-26T01:17:25;101176.94;;;-0.68;100.00
55759;BME280;41678;52.126;20.664;2023-01-26T01:22:45;101174.50;;;-0.65;100.00
55759;BME280;41678;52.126;20.664;2023-01-26T01:28:05;101169.28;;;-0.67;100.00
55759;BME280;41678;52.126;20.664;2023-01-26T01:33:24;101146.19;;;-0.62;100.00
55759;BME280;41678;52.126;20.664;2023-01-26T01:38:45;101138.38;;;-0.64;100.00
55759;BME280;41678;52.126;20.664;2023-01-26T01:44:24;101123.47;;;-0.69;100.00
55759;BME280;41678;52.126;20.664;2023-01-26T01:49:47;101119.38;;;-0.64;100.00
55759;BME280;41678;52.126;20.664;2023-01-26T01:55:09;101115.91;;;-0.65;100.00
55759;BME280;41678;52.126;20.664;2023-01-26T02:00:30;101103.94;;;-0.63;100.00
55759;BME280;41678;52.126;20.664;2023-01-26T02:06:06;101102.03;;;-0.67;100.00
55759;BME280;41678;52.126;20.664;2023-01-26T02:11:41;101097.72;;;-0.66;100.00
55759;BME280;41678;52.126;20.664;2023-01-26T02:17:03;101090.91;;;-0.64;100.00
55759;BME280;41678;52.126;20.664;2023-01-26T02:22:33;101099.50;;;-0.65;100.00
55759;BME280;41678;52.126;20.664;2023-01-26T02:27:55;101096.09;;;-0.64;100.00
55759;BME280;41678;52.126;20.664;2023-01-26T02:33:24;101086.88;;;-0.59;100.00
55759;BME280;41678;52.126;20.664;2023-01-26T02:38:50;101076.31;;;-0.64;100.00
55759;BME280;41678;52.126;20.664;2023-01-26T02:44:13;101071.00;;;-0.67;100.00
55759;BME280;41678;52.126;20.664;2023-01-26T02:49:33;101070.22;;;-0.64;100.00
55759;BME280;41678;52.126;20.664;2023-01-26T02:55:12;101063.59;;;-0.59;100.00
55759;BME280;41678;52.126;20.664;2023-01-26T03:00:41;101054.72;;;-0.64;100.00
55759;BME280;41678;52.126;20.664;2023-01-26T03:06:03;101036.69;;;-0.63;100.00
55759;BME280;41678;52.126;20.664;2023-01-26T03:11:23;101048.06;;;-0.59;100.00
55759;BME280;41678;52.126;20.664;2023-01-26T03:17:00;101029.75;;;-0.64;100.00
55759;BME280;41678;52.126;20.664;2023-01-26T03:22:19;101021.09;;;-0.64;100.00
55759;BME280;41678;52.126;20.664;2023-01-26T03:27:58;101023.75;;;-0.63;100.00
55759;BME280;41678;52.126;20.664;2023-01-26T03:33:18;101017.84;;;-0.60;100.00
55759;BME280;41678;52.126;20.664;2023-01-26T03:38:38;101017.28;;;-0.53;100.00
55759;BME280;41678;52.126;20.664;2023-01-26T03:43:58;101006.59;;;-0.61;100.00
55759;BME280;41678;52.126;20.664;2023-01-26T03:49:36;101005.91;;;-0.57;100.00
55759;BME280;41678;52.126;20.664;2023-01-26T03:55:15;100995.53;;;-0.58;100.00
55759;BME280;41678;52.126;20.664;2023-01-26T04:00:54;100992.94;;;-0.58;100.00
55759;BME280;41678;52.126;20.664;2023-01-26T04:06:14;100972.16;;;-0.60;100.00
55759;BME280;41678;52.126;20.664;2023-01-26T04:11:52;100973.09;;;-0.58;100.00
55759;BME280;41678;52.126;20.664;2023-01-26T04:17:12;100967.31;;;-0.52;100.00
55759;BME280;41678;52.126;20.664;2023-01-26T04:22:51;100979.31;;;-0.54;100.00
55759;BME280;41678;52.126;20.664;2023-01-26T04:28:11;100984.34;;;-0.57;100.00
55759;BME280;41678;52.126;20.664;2023-01-26T04:33:32;100980.03;;;-0.57;100.00
55759;BME280;41678;52.126;20.664;2023-01-26T04:38:51;100985.09;;;-0.60;100.00
55759;BME280;41678;52.126;20.664;2023-01-26T04:44:12;100989.53;;;-0.57;100.00
55759;BME280;41678;52.126;20.664;2023-01-26T04:49:32;100984.41;;;-0.55;100.00
55759;BME280;41678;52.126;20.664;2023-01-26T04:54:52;100971.53;;;-0.54;100.00
55759;BME280;41678;52.126;20.664;2023-01-26T05:00:12;100975.91;;;-0.53;100.00
55759;BME280;41678;52.126;20.664;2023-01-26T05:05:37;100967.25;;;-0.53;100.00
55759;BME280;41678;52.126;20.664;2023-01-26T05:10:56;100963.53;;;-0.60;100.00
55759;BME280;41678;52.126;20.664;2023-01-26T05:16:25;100971.16;;;-0.44;100.00
55759;BME280;41678;52.126;20.664;2023-01-26T05:21:55;100962.16;;;-0.52;100.00
55759;BME280;41678;52.126;20.664;2023-01-26T05:27:15;100950.78;;;-0.55;100.00
55759;BME280;41678;52.126;20.664;2023-01-26T05:32:51;100955.22;;;-0.53;100.00
55759;BME280;41678;52.126;20.664;2023-01-26T05:38:11;100956.09;;;-0.52;100.00
55759;BME280;41678;52.126;20.664;2023-01-26T05:43:31;100953.44;;;-0.54;100.00
55759;BME280;41678;52.126;20.664;2023-01-26T05:49:02;100957.78;;;-0.53;100.00
55759;BME280;41678;52.126;20.664;2023-01-26T05:54:22;100953.56;;;-0.51;100.00
55759;BME280;41678;52.126;20.664;2023-01-26T05:59:42;100950.16;;;-0.50;100.00
55759;BME280;41678;52.126;20.664;2023-01-26T06:05:02;100963.19;;;-0.48;100.00
55759;BME280;41678;52.126;20.664;2023-01-26T06:10:22;100969.09;;;-0.51;100.00
55759;BME280;41678;52.126;20.664;2023-01-26T06:16:01;100963.06;;;-0.51;100.00
55759;BME280;41678;52.126;20.664;2023-01-26T06:21:22;100958.75;;;-0.51;100.00
55759;BME280;41678;52.126;20.664;2023-01-26T06:26:42;100958.75;;;-0.51;100.00
55759;BME280;41678;52.126;20.664;2023-01-26T06:32:03;100959.03;;;-0.45;100.00
55759;BME280;41678;52.126;20.664;2023-01-26T06:37:23;100953.78;;;-0.46;100.00
55759;BME280;41678;52.126;20.664;2023-01-26T06:42:48;100954.72;;;-0.44;100.00
55759;BME280;41678;52.126;20.664;2023-01-26T06:48:10;100942.41;;;-0.50;100.00
55759;BME280;41678;52.126;20.664;2023-01-26T06:53:36;100953.84;;;-0.45;100.00
55759;BME280;41678;52.126;20.664;2023-01-26T06:59:15;100943.34;;;-0.48;100.00
55759;BME280;41678;52.126;20.664;2023-01-26T07:05:03;100943.34;;;-0.48;100.00
55759;BME280;41678;52.126;20.664;2023-01-26T07:10:23;100950.28;;;-0.47;100.00
55759;BME280;41678;52.126;20.664;2023-01-26T07:15:43;100945.19;;;-0.45;100.00
55759;BME280;41678;52.126;20.664;2023-01-26T07:21:04;100949.44;;;-0.47;100.00
55759;BME280;41678;52.126;20.664;2023-01-26T07:26:24;100945.28;;;-0.44;100.00
55759;BME280;41678;52.126;20.664;2023-01-26T07:31:44;100943.63;;;-0.41;100.00
55759;BME280;41678;52.126;20.664;2023-01-26T07:37:04;100936.69;;;-0.43;100.00
55759;BME280;41678;52.126;20.664;2023-01-26T07:42:24;100928.13;;;-0.41;100.00
55759;BME280;41678;52.126;20.664;2023-01-26T07:48:11;100911.69;;;-0.42;100.00
55759;BME280;41678;52.126;20.664;2023-01-26T07:53:31;100910.81;;;-0.43;100.00
55759;BME280;41678;52.126;20.664;2023-01-26T07:58:53;100922.56;;;-0.30;100.00
55759;BME280;41678;52.126;20.664;2023-01-26T08:04:12;100915.50;;;-0.34;100.00
55759;BME280;41678;52.126;20.664;2023-01-26T08:09:32;100928.44;;;-0.34;100.00
55759;BME280;41678;52.126;20.664;2023-01-26T08:14:51;100913.63;;;-0.38;100.00
55759;BME280;41678;52.126;20.664;2023-01-26T08:20:11;100916.44;;;-0.32;100.00
55759;BME280;41678;52.126;20.664;2023-01-26T08:25:32;100918.91;;;-0.35;100.00
55759;BME280;41678;52.126;20.664;2023-01-26T08:30:52;100921.97;;;-0.24;100.00
55759;BME280;41678;52.126;20.664;2023-01-26T08:36:14;100921.06;;;-0.24;100.00
55759;BME280;41678;52.126;20.664;2023-01-26T08:41:33;100913.94;;;-0.30;100.00
55759;BME280;41678;52.126;20.664;2023-01-26T08:46:53;100919.03;;;-0.32;100.00
55759;BME280;41678;52.126;20.664;2023-01-26T08:52:12;100919.25;;;-0.27;100.00
55759;BME280;41678;52.126;20.664;2023-01-26T08:57:32;100935.16;;;-0.18;100.00
55759;BME280;41678;52.126;20.664;2023-01-26T09:03:03;100939.25;;;-0.23;100.00
55759;BME280;41678;52.126;20.664;2023-01-26T09:08:22;100940.28;;;-0.19;100.00
55759;BME280;41678;52.126;20.664;2023-01-26T09:13:42;100941.22;;;-0.17;100.00
55759;BME280;41678;52.126;20.664;2023-01-26T09:19:01;100946.22;;;-0.01;100.00
55759;BME280;41678;52.126;20.664;2023-01-26T09:24:22;100944.19;;;-0.08;100.00
55759;BME280;41678;52.126;20.664;2023-01-26T09:29:42;100936.25;;;-0.12;100.00
55759;BME280;41678;52.126;20.664;2023-01-26T09:35:02;100934.47;;;-0.13;100.00
55759;BME280;41678;52.126;20.664;2023-01-26T09:51:34;100924.38;;;-0.07;100.00
55759;BME280;41678;52.126;20.664;2023-01-26T09:56:55;100919.19;;;-0.07;100.00
55759;BME280;41678;52.126;20.664;2023-01-26T10:02:45;100911.34;;;-0.09;100.00
55759;BME280;41678;52.126;20.664;2023-01-26T10:08:10;100912.78;;;0.04;100.00
55759;BME280;41678;52.126;20.664;2023-01-26T10:13:30;100901.91;;;-0.08;100.00
55759;BME280;41678;52.126;20.664;2023-01-26T10:18:54;100903.78;;;-0.04;100.00
55759;BME280;41678;52.126;20.664;2023-01-26T10:24:20;100895.19;;;-0.03;100.00
55759;BME280;41678;52.126;20.664;2023-01-26T10:29:41;100882.00;;;-0.09;100.00
55759;BME280;41678;52.126;20.664;2023-01-26T10:35:00;100879.75;;;-0.02;100.00
55759;BME280;41678;52.126;20.664;2023-01-26T10:40:20;100870.09;;;-0.06;100.00
55759;BME280;41678;52.126;20.664;2023-01-26T10:45:44;100878.91;;;-0.01;100.00
55759;BME280;41678;52.126;20.664;2023-01-26T10:51:18;100860.78;;;-0.01;100.00
55759;BME280;41678;52.126;20.664;2023-01-26T10:56:45;100868.03;;;0.08;100.00
55759;BME280;41678;52.126;20.664;2023-01-26T11:07:37;100838.22;;;0.18;100.00
55759;BME280;41678;52.126;20.664;2023-01-26T11:13:16;100835.59;;;0.17;100.00
55759;BME280;41678;52.126;20.664;2023-01-26T11:18:59;100819.91;;;0.13;100.00
55759;BME280;41678;52.126;20.664;2023-01-26T11:24:33;100825.88;;;0.11;100.00
55759;BME280;41678;52.126;20.664;2023-01-26T11:30:35;100812.84;;;0.09;100.00
55759;BME280;41678;52.126;20.664;2023-01-26T11:36:12;100814.59;;;0.10;100.00
55759;BME280;41678;52.126;20.664;2023-01-26T11:47:28;100797.19;;;0.06;100.00
55759;BME280;41678;52.126;20.664;2023-01-26T11:58:48;100781.34;;;0.21;100.00
55759;BME280;41678;52.126;20.664;2023-01-26T12:04:19;100786.22;;;0.13;100.00
55759;BME280;41678;52.126;20.664;2023-01-26T12:09:42;100782.53;;;0.07;100.00
55759;BME280;41678;52.126;20.664;2023-01-26T12:15:50;100766.34;;;0.12;100.00
55759;BME280;41678;52.126;20.664;2023-01-26T12:20:53;100775.84;;;0.12;100.00
55759;BME280;41678;52.126;20.664;2023-01-26T12:26:17;100766.34;;;0.12;100.00
55759;BME280;41678;52.126;20.664;2023-01-26T12:31:57;100773.28;;;0.13;100.00
55759;BME280;41678;52.126;20.664;2023-01-26T12:42:53;100782.38;;;0.25;100.00
55759;BME280;41678;52.126;20.664;2023-01-26T12:48:43;100776.97;;;0.19;100.00
55759;BME280;41678;52.126;20.664;2023-01-26T12:59:34;100770.00;;;0.18;100.00
55759;BME280;41678;52.126;20.664;2023-01-26T13:04:59;100764.69;;;0.14;100.00
55759;BME280;41678;52.126;20.664;2023-01-26T13:10:23;100763.81;;;0.14;100.00
55759;BME280;41678;52.126;20.664;2023-01-26T13:15:43;100762.94;;;0.13;100.00
55759;BME280;41678;52.126;20.664;2023-01-26T13:21:03;100763.28;;;0.23;100.00
55759;BME280;41678;52.126;20.664;2023-01-26T13:31:53;100752.81;;;0.20;100.00
55759;BME280;41678;52.126;20.664;2023-01-26T13:37:44;100748.50;;;0.20;100.00
55759;BME280;41678;52.126;20.664;2023-01-26T13:48:52;100735.16;;;0.32;100.00
55759;BME280;41678;52.126;20.664;2023-01-26T13:54:14;100747.53;;;0.17;100.00
55759;BME280;41678;52.126;20.664;2023-01-26T13:59:33;100748.38;;;0.16;100.00
55759;BME280;41678;52.126;20.664;2023-01-26T14:05:05;100746.56;;;0.14;100.00
55759;BME280;41678;52.126;20.664;2023-01-26T14:10:25;100742.94;;;0.09;100.00
55759;BME280;41678;52.126;20.664;2023-01-26T14:15:54;100740.22;;;0.06;100.00
55759;BME280;41678;52.126;20.664;2023-01-26T14:21:20;100738.88;;;0.16;100.00
55759;BME280;41678;52.126;20.664;2023-01-26T14:26:40;100729.97;;;0.09;100.00
55759;BME280;41678;52.126;20.664;2023-01-26T14:32:01;100736.81;;;0.07;100.00
55759;BME280;41678;52.126;20.664;2023-01-26T14:37:21;100734.50;;;0.15;100.00
55759;BME280;41678;52.126;20.664;2023-01-26T14:42:42;100731.41;;;0.01;100.00
55759;BME280;41678;52.126;20.664;2023-01-26T14:48:05;100731.34;;;-0.01;100.00
55759;BME280;41678;52.126;20.664;2023-01-26T14:53:26;100720.91;;;-0.02;100.00
55759;BME280;41678;52.126;20.664;2023-01-26T14:58:49;100719.16;;;-0.03;100.00
55759;BME280;41678;52.126;20.664;2023-01-26T15:04:25;100710.44;;;-0.05;100.00
55759;BME280;41678;52.126;20.664;2023-01-26T15:09:51;100703.50;;;-0.06;100.00
55759;BME280;41678;52.126;20.664;2023-01-26T15:15:11;100694.69;;;-0.11;100.00
55759;BME280;41678;52.126;20.664;2023-01-26T15:25:52;100706.03;;;-0.08;100.00
55759;BME280;41678;52.126;20.664;2023-01-26T15:31:19;100718.03;;;-0.10;100.00
55759;BME280;41678;52.126;20.664;2023-01-26T15:42:25;100728.22;;;-0.15;100.00
55759;BME280;41678;52.126;20.664;2023-01-26T15:47:49;100718.31;;;-0.25;100.00
55759;BME280;41678;52.126;20.664;2023-01-26T15:53:17;100729.69;;;-0.21;100.00
55759;BME280;41678;52.126;20.664;2023-01-26T15:58:40;100729.84;;;-0.17;100.00
55759;BME280;41678;52.126;20.664;2023-01-26T16:04:00;100731.44;;;-0.20;100.00
55759;BME280;41678;52.126;20.664;2023-01-26T16:09:20;100735.63;;;-0.24;100.00
55759;BME280;41678;52.126;20.664;2023-01-26T16:14:39;100740.09;;;-0.20;100.00
55759;BME280;41678;52.126;20.664;2023-01-26T16:19:59;100743.31;;;-0.25;100.00
55759;BME280;41678;52.126;20.664;2023-01-26T16:25:23;100744.44;;;-0.19;100.00
55759;BME280;41678;52.126;20.664;2023-01-26T16:30:46;100752.91;;;-0.23;100.00
55759;BME280;41678;52.126;20.664;2023-01-26T16:36:08;100752.91;;;-0.23;100.00
55759;BME280;41678;52.126;20.664;2023-01-26T16:41:31;100748.47;;;-0.25;100.00
55759;BME280;41678;52.126;20.664;2023-01-26T16:46:50;100750.19;;;-0.26;100.00
55759;BME280;41678;52.126;20.664;2023-01-26T16:52:10;100744.44;;;-0.19;100.00
55759;BME280;41678;52.126;20.664;2023-01-26T16:57:29;100743.94;;;-0.31;100.00
55759;BME280;41678;52.126;20.664;2023-01-26T17:02:50;100756.19;;;-0.27;100.00
55759;BME280;41678;52.126;20.664;2023-01-26T17:08:10;100750.91;;;-0.30;100.00
55759;BME280;41678;52.126;20.664;2023-01-26T17:13:30;100753.13;;;-0.39;100.00
55759;BME280;41678;52.126;20.664;2023-01-26T17:18:51;100739.53;;;-0.34;100.00
55759;BME280;41678;52.126;20.664;2023-01-26T17:24:10;100738.53;;;-0.37;100.00
55759;BME280;41678;52.126;20.664;2023-01-26T17:29:30;100734.06;;;-0.41;100.00
55759;BME280;41678;52.126;20.664;2023-01-26T17:34:50;100734.88;;;-0.43;100.00
55759;BME280;41678;52.126;20.664;2023-01-26T17:40:11;100721.13;;;-0.41;100.00
55759;BME280;41678;52.126;20.664;2023-01-26T17:45:30;100717.75;;;-0.39;100.00
55759;BME280;41678;52.126;20.664;2023-01-26T17:50:50;100714.00;;;-0.47;100.00
55759;BME280;41678;52.126;20.664;2023-01-26T17:56:11;100722.78;;;-0.44;99.98
55759;BME280;41678;52.126;20.664;2023-01-26T18:01:32;100718.22;;;-0.49;100.00
55759;BME280;41678;52.126;20.664;2023-01-26T18:06:51;100737.91;;;-0.53;100.00
55759;BME280;41678;52.126;20.664;2023-01-26T18:12:11;100735.19;;;-0.56;99.94
55759;BME280;41678;52.126;20.664;2023-01-26T18:17:30;100734.56;;;-0.50;100.00
55759;BME280;41678;52.126;20.664;2023-01-26T18:22:49;100743.97;;;-0.52;100.00
55759;BME280;41678;52.126;20.664;2023-01-26T18:28:10;100732.81;;;-0.51;100.00
55759;BME280;41678;52.126;20.664;2023-01-26T18:33:30;100735.63;;;-0.45;100.00
55759;BME280;41678;52.126;20.664;2023-01-26T18:38:51;100740.56;;;-0.51;100.00
55759;BME280;41678;52.126;20.664;2023-01-26T18:44:11;100744.03;;;-0.51;100.00
55759;BME280;41678;52.126;20.664;2023-01-26T18:49:31;100736.03;;;-0.57;99.98
55759;BME280;41678;52.126;20.664;2023-01-26T18:54:50;100744.22;;;-0.46;100.00
55759;BME280;41678;52.126;20.664;2023-01-26T19:00:10;100740.06;;;-0.64;100.00
55759;BME280;41678;52.126;20.664;2023-01-26T19:05:31;100736.66;;;-0.63;99.74
55759;BME280;41678;52.126;20.664;2023-01-26T19:10:51;100737.28;;;-0.68;100.00
55759;BME280;41678;52.126;20.664;2023-01-26T19:16:11;100736.34;;;-0.70;99.66
55759;BME280;41678;52.126;20.664;2023-01-26T19:21:30;100750.13;;;-0.70;99.90
55759;BME280;41678;52.126;20.664;2023-01-26T19:26:50;100751.22;;;-0.65;99.74
55759;BME280;41678;52.126;20.664;2023-01-26T19:32:09;100751.28;;;-0.63;100.00
55759;BME280;41678;52.126;20.664;2023-01-26T19:37:29;100742.44;;;-0.68;100.00
55759;BME280;41678;52.126;20.664;2023-01-26T19:42:49;100738.03;;;-0.71;100.00
55759;BME280;41678;52.126;20.664;2023-01-26T19:48:09;100747.50;;;-0.72;99.92
55759;BME280;41678;52.126;20.664;2023-01-26T19:53:31;100744.22;;;-0.67;100.00
55759;BME280;41678;52.126;20.664;2023-01-26T19:58:53;100750.22;;;-0.68;99.91
55759;BME280;41678;52.126;20.664;2023-01-26T20:04:13;100745.97;;;-0.66;100.00
55759;BME280;41678;52.126;20.664;2023-01-26T20:09:33;100747.50;;;-0.72;100.00
55759;BME280;41678;52.126;20.664;2023-01-26T20:14:53;100735.81;;;-0.62;99.64
55759;BME280;41678;52.126;20.664;2023-01-26T20:20:13;100739.16;;;-0.64;99.97
55759;BME280;41678;52.126;20.664;2023-01-26T20:25:34;100745.34;;;-0.61;100.00
55759;BME280;41678;52.126;20.664;2023-01-26T20:30:54;100738.41;;;-0.62;100.00
55759;BME280;41678;52.126;20.664;2023-01-26T20:36:24;100734.69;;;-0.68;100.00
55759;BME280;41678;52.126;20.664;2023-01-26T20:41:44;100739.03;;;-0.67;100.00
55759;BME280;41678;52.126;20.664;2023-01-26T20:47:03;100734.44;;;-0.75;100.00
55759;BME280;41678;52.126;20.664;2023-01-26T20:52:23;100737.41;;;-0.65;100.00
55759;BME280;41678;52.126;20.664;2023-01-26T20:57:43;100734.38;;;-0.76;100.00
55759;BME280;41678;52.126;20.664;2023-01-26T21:03:03;100726.69;;;-0.75;100.00
55759;BME280;41678;52.126;20.664;2023-01-26T21:08:23;100708.81;;;-0.68;100.00
55759;BME280;41678;52.126;20.664;2023-01-26T21:13:43;100721.88;;;-0.65;100.00
55759;BME280;41678;52.126;20.664;2023-01-26T21:19:03;100723.75;;;-0.61;100.00
55759;BME280;41678;52.126;20.664;2023-01-26T21:24:23;100717.91;;;-0.57;100.00
55759;BME280;41678;52.126;20.664;2023-01-26T21:29:42;100730.72;;;-0.60;100.00
55759;BME280;41678;52.126;20.664;2023-01-26T21:35:02;100724.84;;;-0.56;100.00
55759;BME280;41678;52.126;20.664;2023-01-26T21:40:22;100725.56;;;-0.60;100.00
55759;BME280;41678;52.126;20.664;2023-01-26T21:45:41;100734.88;;;-0.64;100.00
55759;BME280;41678;52.126;20.664;2023-01-26T21:51:13;100735.72;;;-0.65;100.00
55759;BME280;41678;52.126;20.664;2023-01-26T21:56:51;100722.00;;;-0.62;100.00
55759;BME280;41678;52.126;20.664;2023-01-26T22:02:10;100722.50;;;-0.71;100.00
55759;BME280;41678;52.126;20.664;2023-01-26T22:07:30;100711.28;;;-0.72;100.00
55759;BME280;41678;52.126;20.664;2023-01-26T22:12:50;100720.75;;;-0.72;100.00
55759;BME280;41678;52.126;20.664;2023-01-26T22:18:10;100724.47;;;-0.65;100.00
55759;BME280;41678;52.126;20.664;2023-01-26T22:23:33;100712.22;;;-0.69;100.00
55759;BME280;41678;52.126;20.664;2023-01-26T22:28:55;100719.38;;;-0.64;100.00
55759;BME280;41678;52.126;20.664;2023-01-26T22:34:15;100713.38;;;-0.63;100.00
55759;BME280;41678;52.126;20.664;2023-01-26T22:39:35;100723.63;;;-0.64;100.00
55759;BME280;41678;52.126;20.664;2023-01-26T22:44:55;100721.88;;;-0.65;100.00
55759;BME280;41678;52.126;20.664;2023-01-26T22:50:15;100717.59;;;-0.65;100.00
55759;BME280;41678;52.126;20.664;2023-01-26T22:55:42;100709.88;;;-0.63;100.00
55759;BME280;41678;52.126;20.664;2023-01-26T23:01:12;100712.47;;;-0.63;100.00
55759;BME280;41678;52.126;20.664;2023-01-26T23:06:32;100709.84;;;-0.65;100.00
55759;BME280;41678;52.126;20.664;2023-01-26T23:11:52;100713.41;;;-0.61;100.00
55759;BME280;41678;52.126;20.664;2023-01-26T23:17:11;100707.00;;;-0.71;100.00
55759;BME280;41678;52.126;20.664;2023-01-26T23:22:31;100712.31;;;-0.68;100.00
55759;BME280;41678;52.126;20.664;2023-01-26T23:27:50;100703.59;;;-0.70;100.00
55759;BME280;41678;52.126;20.664;2023-01-26T23:33:10;100694.00;;;-0.73;100.00
55759;BME280;41678;52.126;20.664;2023-01-26T23:38:30;100697.53;;;-0.70;100.00
55759;BME280;41678;52.126;20.664;2023-01-26T23:43:49;100693.19;;;-0.72;100.00
55759;BME280;41678;52.126;20.664;2023-01-26T23:49:09;100685.44;;;-0.72;100.00
55759;BME280;41678;52.126;20.664;2023-01-26T23:54:29;100696.72;;;-0.69;100.00
55759;BME280;41678;52.126;20.664;2023-01-26T23:59:48;100690.59;;;-0.72;100.00
